Poplar Flat, Kentucky
Current Conditions -  °F | °C
As of 8:15 PM on Sunday 23 Nov 2014 (Local Time) from KFGX Reporting Station
Drizzle Drizzle  
Wind Chill: 55°   Ceiling: 10000
Heat Index: 55°   Visibility: 10mi
Dew Point: 52°   Wind: 21mph
Humidity: 92%   Direction: 140°SE
Pressure: 29.44"   Gusts: 30mph
Location:  38.5845°N, 83.5468°W
Report Text: KFGX 240115Z AUTO 14018G26KT 10SM DZ OVC100 13/11 A2944 RMK AO2 T01250112
Loading
Personal Weather Stations






























Interactive Weather Map New forecast layout! Learn more

10-Day Weather Forecast

Advertisements
Track Severe Weather on mobile